sensor_id;sensor_type;location;lat;lon;timestamp;P1;durP1;ratioP1;P2;durP2;ratioP2
3726;SDS011;1879;45.876;12.300;2023-05-21T00:01:18;11.63;;;10.53;;
3726;SDS011;1879;45.876;12.300;2023-05-21T00:03:45;12.10;;;11.03;;
3726;SDS011;1879;45.876;12.300;2023-05-21T00:06:13;11.57;;;10.50;;
3726;SDS011;1879;45.876;12.300;2023-05-21T00:08:40;15.17;;;12.30;;
3726;SDS011;1879;45.876;12.300;2023-05-21T00:11:08;11.93;;;10.80;;
3726;SDS011;1879;45.876;12.300;2023-05-21T00:13:36;11.23;;;10.30;;
3726;SDS011;1879;45.876;12.300;2023-05-21T00:16:03;11.80;;;10.70;;
3726;SDS011;1879;45.876;12.300;2023-05-21T00:18:31;12.27;;;11.00;;
3726;SDS011;1879;45.876;12.300;2023-05-21T00:20:58;12.07;;;10.93;;
3726;SDS011;1879;45.876;12.300;2023-05-21T00:23:25;11.60;;;10.50;;
3726;SDS011;1879;45.876;12.300;2023-05-21T00:25:53;12.27;;;11.17;;
3726;SDS011;1879;45.876;12.300;2023-05-21T00:28:20;11.53;;;10.53;;
3726;SDS011;1879;45.876;12.300;2023-05-21T00:30:48;12.10;;;11.00;;
3726;SDS011;1879;45.876;12.300;2023-05-21T00:33:15;12.13;;;10.73;;
3726;SDS011;1879;45.876;12.300;2023-05-21T00:35:42;11.60;;;10.60;;
3726;SDS011;1879;45.876;12.300;2023-05-21T00:38:12;12.23;;;11.03;;
3726;SDS011;1879;45.876;12.300;2023-05-21T00:40:41;12.17;;;10.87;;
3726;SDS011;1879;45.876;12.300;2023-05-21T00:43:11;12.27;;;11.03;;
3726;SDS011;1879;45.876;12.300;2023-05-21T00:45:39;12.00;;;11.00;;
3726;SDS011;1879;45.876;12.300;2023-05-21T00:48:09;12.67;;;11.60;;
3726;SDS011;1879;45.876;12.300;2023-05-21T00:50:38;13.57;;;12.37;;
3726;SDS011;1879;45.876;12.300;2023-05-21T00:53:06;13.87;;;11.27;;
3726;SDS011;1879;45.876;12.300;2023-05-21T00:55:34;12.50;;;11.40;;
3726;SDS011;1879;45.876;12.300;2023-05-21T00:58:02;11.80;;;10.80;;
3726;SDS011;1879;45.876;12.300;2023-05-21T01:00:29;12.83;;;11.73;;
3726;SDS011;1879;45.876;12.300;2023-05-21T01:02:58;15.43;;;11.53;;
3726;SDS011;1879;45.876;12.300;2023-05-21T01:05:27;12.17;;;11.07;;
3726;SDS011;1879;45.876;12.300;2023-05-21T01:07:54;12.23;;;11.13;;
3726;SDS011;1879;45.876;12.300;2023-05-21T01:10:22;12.50;;;11.30;;
3726;SDS011;1879;45.876;12.300;2023-05-21T01:12:50;11.83;;;10.73;;
3726;SDS011;1879;45.876;12.300;2023-05-21T01:15:18;12.63;;;11.07;;
3726;SDS011;1879;45.876;12.300;2023-05-21T01:17:45;12.60;;;11.40;;
3726;SDS011;1879;45.876;12.300;2023-05-21T01:20:14;12.87;;;11.67;;
3726;SDS011;1879;45.876;12.300;2023-05-21T01:22:47;12.33;;;11.23;;
3726;SDS011;1879;45.876;12.300;2023-05-21T01:25:17;13.13;;;11.83;;
3726;SDS011;1879;45.876;12.300;2023-05-21T01:27:44;12.00;;;11.00;;
3726;SDS011;1879;45.876;12.300;2023-05-21T01:30:11;12.37;;;11.17;;
3726;SDS011;1879;45.876;12.300;2023-05-21T01:32:40;12.80;;;11.50;;
3726;SDS011;1879;45.876;12.300;2023-05-21T01:35:13;11.40;;;10.30;;
3726;SDS011;1879;45.876;12.300;2023-05-21T01:37:48;13.30;;;12.10;;
3726;SDS011;1879;45.876;12.300;2023-05-21T01:40:21;14.03;;;10.83;;
3726;SDS011;1879;45.876;12.300;2023-05-21T01:42:52;13.33;;;12.10;;
3726;SDS011;1879;45.876;12.300;2023-05-21T01:45:19;14.00;;;12.70;;
3726;SDS011;1879;45.876;12.300;2023-05-21T01:47:52;13.83;;;12.50;;
3726;SDS011;1879;45.876;12.300;2023-05-21T01:50:21;12.97;;;11.70;;
3726;SDS011;1879;45.876;12.300;2023-05-21T01:52:51;12.13;;;11.03;;
3726;SDS011;1879;45.876;12.300;2023-05-21T01:55:21;12.73;;;11.60;;
3726;SDS011;1879;45.876;12.300;2023-05-21T01:57:49;13.43;;;12.23;;
3726;SDS011;1879;45.876;12.300;2023-05-21T02:00:17;12.70;;;11.50;;
3726;SDS011;1879;45.876;12.300;2023-05-21T02:02:45;12.47;;;11.43;;
3726;SDS011;1879;45.876;12.300;2023-05-21T02:05:12;13.60;;;12.30;;
3726;SDS011;1879;45.876;12.300;2023-05-21T02:07:39;12.37;;;11.13;;
3726;SDS011;1879;45.876;12.300;2023-05-21T02:10:09;12.97;;;11.83;;
3726;SDS011;1879;45.876;12.300;2023-05-21T02:12:37;13.37;;;12.20;;
3726;SDS011;1879;45.876;12.300;2023-05-21T02:15:04;14.03;;;12.63;;
3726;SDS011;1879;45.876;12.300;2023-05-21T02:17:32;13.57;;;12.30;;
3726;SDS011;1879;45.876;12.300;2023-05-21T02:19:59;14.17;;;12.83;;
3726;SDS011;1879;45.876;12.300;2023-05-21T02:22:35;12.70;;;11.57;;
3726;SDS011;1879;45.876;12.300;2023-05-21T02:25:03;13.50;;;12.30;;
3726;SDS011;1879;45.876;12.300;2023-05-21T02:27:32;14.33;;;11.47;;
3726;SDS011;1879;45.876;12.300;2023-05-21T02:30:01;12.97;;;11.80;;
3726;SDS011;1879;45.876;12.300;2023-05-21T02:32:28;12.67;;;11.57;;
3726;SDS011;1879;45.876;12.300;2023-05-21T02:34:56;12.30;;;11.20;;
3726;SDS011;1879;45.876;12.300;2023-05-21T02:37:23;13.07;;;11.90;;
3726;SDS011;1879;45.876;12.300;2023-05-21T02:39:52;13.73;;;12.33;;
3726;SDS011;1879;45.876;12.300;2023-05-21T02:42:19;13.90;;;12.50;;
3726;SDS011;1879;45.876;12.300;2023-05-21T02:44:48;13.77;;;12.57;;
3726;SDS011;1879;45.876;12.300;2023-05-21T02:47:15;12.87;;;11.70;;
3726;SDS011;1879;45.876;12.300;2023-05-21T02:49:42;14.90;;;13.27;;
3726;SDS011;1879;45.876;12.300;2023-05-21T02:52:09;12.80;;;11.70;;
3726;SDS011;1879;45.876;12.300;2023-05-21T02:54:36;12.73;;;11.60;;
3726;SDS011;1879;45.876;12.300;2023-05-21T02:57:04;13.93;;;12.50;;
3726;SDS011;1879;45.876;12.300;2023-05-21T02:59:31;11.57;;;10.57;;
3726;SDS011;1879;45.876;12.300;2023-05-21T03:01:59;13.57;;;12.47;;
3726;SDS011;1879;45.876;12.300;2023-05-21T03:04:26;12.60;;;11.50;;
3726;SDS011;1879;45.876;12.300;2023-05-21T03:06:53;12.53;;;11.23;;
3726;SDS011;1879;45.876;12.300;2023-05-21T03:09:20;13.13;;;11.93;;
3726;SDS011;1879;45.876;12.300;2023-05-21T03:11:48;12.47;;;11.23;;
3726;SDS011;1879;45.876;12.300;2023-05-21T03:14:15;12.60;;;11.50;;
3726;SDS011;1879;45.876;12.300;2023-05-21T03:16:42;12.37;;;11.27;;
3726;SDS011;1879;45.876;12.300;2023-05-21T03:19:11;13.50;;;12.40;;
3726;SDS011;1879;45.876;12.300;2023-05-21T03:21:38;12.00;;;10.90;;
3726;SDS011;1879;45.876;12.300;2023-05-21T03:24:05;13.53;;;12.23;;
3726;SDS011;1879;45.876;12.300;2023-05-21T03:26:33;13.70;;;12.40;;
3726;SDS011;1879;45.876;12.300;2023-05-21T03:29:00;12.33;;;11.10;;
3726;SDS011;1879;45.876;12.300;2023-05-21T03:31:27;14.67;;;13.20;;
3726;SDS011;1879;45.876;12.300;2023-05-21T03:33:54;11.57;;;10.57;;
3726;SDS011;1879;45.876;12.300;2023-05-21T03:36:22;12.87;;;11.60;;
3726;SDS011;1879;45.876;12.300;2023-05-21T03:38:49;12.53;;;11.37;;
3726;SDS011;1879;45.876;12.300;2023-05-21T03:41:16;13.20;;;11.90;;
3726;SDS011;1879;45.876;12.300;2023-05-21T03:43:43;13.20;;;12.00;;
3726;SDS011;1879;45.876;12.300;2023-05-21T03:46:13;12.43;;;11.33;;
3726;SDS011;1879;45.876;12.300;2023-05-21T03:48:40;11.60;;;10.60;;
3726;SDS011;1879;45.876;12.300;2023-05-21T03:51:07;13.20;;;11.90;;
3726;SDS011;1879;45.876;12.300;2023-05-21T03:53:35;11.80;;;10.80;;
3726;SDS011;1879;45.876;12.300;2023-05-21T03:56:02;13.10;;;11.80;;
3726;SDS011;1879;45.876;12.300;2023-05-21T03:58:30;14.40;;;11.90;;
3726;SDS011;1879;45.876;12.300;2023-05-21T04:00:56;12.70;;;11.40;;
3726;SDS011;1879;45.876;12.300;2023-05-21T04:03:25;12.57;;;11.47;;
3726;SDS011;1879;45.876;12.300;2023-05-21T04:05:55;12.67;;;11.47;;
3726;SDS011;1879;45.876;12.300;2023-05-21T04:08:22;11.77;;;10.73;;
3726;SDS011;1879;45.876;12.300;2023-05-21T04:10:51;11.77;;;10.77;;
3726;SDS011;1879;45.876;12.300;2023-05-21T04:13:18;11.97;;;10.80;;
3726;SDS011;1879;45.876;12.300;2023-05-21T04:15:45;13.23;;;12.00;;
3726;SDS011;1879;45.876;12.300;2023-05-21T04:18:13;12.80;;;11.57;;
3726;SDS011;1879;45.876;12.300;2023-05-21T04:20:40;13.27;;;11.87;;
3726;SDS011;1879;45.876;12.300;2023-05-21T04:23:08;13.73;;;12.47;;
3726;SDS011;1879;45.876;12.300;2023-05-21T04:25:35;13.30;;;12.00;;
3726;SDS011;1879;45.876;12.300;2023-05-21T04:28:05;13.10;;;11.90;;
3726;SDS011;1879;45.876;12.300;2023-05-21T04:30:32;12.73;;;11.60;;
3726;SDS011;1879;45.876;12.300;2023-05-21T04:33:00;12.33;;;11.13;;
3726;SDS011;1879;45.876;12.300;2023-05-21T04:35:28;11.30;;;10.30;;
3726;SDS011;1879;45.876;12.300;2023-05-21T04:37:55;12.07;;;11.00;;
3726;SDS011;1879;45.876;12.300;2023-05-21T04:40:22;13.37;;;12.17;;
3726;SDS011;1879;45.876;12.300;2023-05-21T04:42:51;11.73;;;10.67;;
3726;SDS011;1879;45.876;12.300;2023-05-21T04:45:19;12.60;;;11.13;;
3726;SDS011;1879;45.876;12.300;2023-05-21T04:47:50;11.90;;;10.70;;
3726;SDS011;1879;45.876;12.300;2023-05-21T04:50:17;11.80;;;10.80;;
3726;SDS011;1879;45.876;12.300;2023-05-21T04:52:44;12.83;;;11.30;;
3726;SDS011;1879;45.876;12.300;2023-05-21T04:55:11;12.40;;;11.17;;
3726;SDS011;1879;45.876;12.300;2023-05-21T04:57:38;11.80;;;10.70;;
3726;SDS011;1879;45.876;12.300;2023-05-21T05:00:06;12.43;;;10.97;;
3726;SDS011;1879;45.876;12.300;2023-05-21T05:02:35;11.13;;;10.03;;
3726;SDS011;1879;45.876;12.300;2023-05-21T05:05:02;11.90;;;10.87;;
3726;SDS011;1879;45.876;12.300;2023-05-21T05:07:30;12.00;;;10.90;;
3726;SDS011;1879;45.876;12.300;2023-05-21T05:09:57;12.27;;;11.07;;
3726;SDS011;1879;45.876;12.300;2023-05-21T05:12:24;12.70;;;11.50;;
3726;SDS011;1879;45.876;12.300;2023-05-21T05:14:50;11.70;;;10.50;;
3726;SDS011;1879;45.876;12.300;2023-05-21T05:17:17;11.03;;;9.93;;
3726;SDS011;1879;45.876;12.300;2023-05-21T05:19:46;11.40;;;10.43;;
3726;SDS011;1879;45.876;12.300;2023-05-21T05:22:13;11.70;;;10.70;;
3726;SDS011;1879;45.876;12.300;2023-05-21T05:24:40;11.50;;;10.40;;
3726;SDS011;1879;45.876;12.300;2023-05-21T05:27:07;11.73;;;10.73;;
3726;SDS011;1879;45.876;12.300;2023-05-21T05:29:34;11.57;;;10.57;;
3726;SDS011;1879;45.876;12.300;2023-05-21T05:32:01;12.93;;;10.77;;
3726;SDS011;1879;45.876;12.300;2023-05-21T05:34:27;11.60;;;10.40;;
3726;SDS011;1879;45.876;12.300;2023-05-21T05:36:56;12.07;;;10.97;;
3726;SDS011;1879;45.876;12.300;2023-05-21T05:39:23;11.00;;;9.20;;
3726;SDS011;1879;45.876;12.300;2023-05-21T05:41:50;11.70;;;10.50;;
3726;SDS011;1879;45.876;12.300;2023-05-21T05:44:17;10.67;;;9.77;;
3726;SDS011;1879;45.876;12.300;2023-05-21T05:46:44;11.00;;;10.00;;
3726;SDS011;1879;45.876;12.300;2023-05-21T05:49:11;11.57;;;10.57;;
3726;SDS011;1879;45.876;12.300;2023-05-21T05:51:39;12.07;;;10.80;;
3726;SDS011;1879;45.876;12.300;2023-05-21T05:54:07;11.40;;;10.30;;
3726;SDS011;1879;45.876;12.300;2023-05-21T05:56:34;11.27;;;10.30;;
3726;SDS011;1879;45.876;12.300;2023-05-21T05:59:01;10.50;;;9.60;;
3726;SDS011;1879;45.876;12.300;2023-05-21T06:01:28;10.83;;;9.87;;
3726;SDS011;1879;45.876;12.300;2023-05-21T06:03:56;11.40;;;10.40;;
3726;SDS011;1879;45.876;12.300;2023-05-21T06:06:23;12.10;;;11.10;;
3726;SDS011;1879;45.876;12.300;2023-05-21T06:08:50;11.93;;;10.83;;
3726;SDS011;1879;45.876;12.300;2023-05-21T06:11:18;11.47;;;10.47;;
3726;SDS011;1879;45.876;12.300;2023-05-21T06:13:46;11.03;;;10.03;;
3726;SDS011;1879;45.876;12.300;2023-05-21T06:16:13;13.43;;;12.23;;
3726;SDS011;1879;45.876;12.300;2023-05-21T06:18:40;14.23;;;12.83;;
3726;SDS011;1879;45.876;12.300;2023-05-21T06:21:07;11.63;;;10.53;;
3726;SDS011;1879;45.876;12.300;2023-05-21T06:23:34;11.90;;;10.90;;
3726;SDS011;1879;45.876;12.300;2023-05-21T06:26:01;12.67;;;10.43;;
3726;SDS011;1879;45.876;12.300;2023-05-21T06:28:30;10.53;;;9.43;;
3726;SDS011;1879;45.876;12.300;2023-05-21T06:30:57;12.00;;;10.77;;
3726;SDS011;1879;45.876;12.300;2023-05-21T06:33:24;14.77;;;13.47;;
3726;SDS011;1879;45.876;12.300;2023-05-21T06:35:52;12.63;;;11.40;;
3726;SDS011;1879;45.876;12.300;2023-05-21T06:38:19;11.47;;;10.47;;
3726;SDS011;1879;45.876;12.300;2023-05-21T06:40:46;10.37;;;9.47;;
3726;SDS011;1879;45.876;12.300;2023-05-21T06:43:13;10.80;;;9.90;;
3726;SDS011;1879;45.876;12.300;2023-05-21T06:45:41;10.63;;;9.73;;
3726;SDS011;1879;45.876;12.300;2023-05-21T06:48:08;10.93;;;9.90;;
3726;SDS011;1879;45.876;12.300;2023-05-21T06:50:36;10.83;;;9.93;;
3726;SDS011;1879;45.876;12.300;2023-05-21T06:53:03;10.80;;;9.80;;
3726;SDS011;1879;45.876;12.300;2023-05-21T06:55:30;9.73;;;8.87;;
3726;SDS011;1879;45.876;12.300;2023-05-21T06:57:57;11.43;;;10.33;;
3726;SDS011;1879;45.876;12.300;2023-05-21T07:00:24;11.00;;;10.00;;
3726;SDS011;1879;45.876;12.300;2023-05-21T07:02:52;11.10;;;10.10;;
3726;SDS011;1879;45.876;12.300;2023-05-21T07:05:19;10.40;;;9.47;;
3726;SDS011;1879;45.876;12.300;2023-05-21T07:07:46;9.60;;;8.80;;
3726;SDS011;1879;45.876;12.300;2023-05-21T07:10:13;15.73;;;9.40;;
3726;SDS011;1879;45.876;12.300;2023-05-21T07:12:40;11.50;;;10.27;;
3726;SDS011;1879;45.876;12.300;2023-05-21T07:15:07;12.70;;;10.13;;
3726;SDS011;1879;45.876;12.300;2023-05-21T07:17:35;10.33;;;9.33;;
3726;SDS011;1879;45.876;12.300;2023-05-21T07:20:03;10.70;;;9.80;;
3726;SDS011;1879;45.876;12.300;2023-05-21T07:22:31;9.73;;;8.93;;
3726;SDS011;1879;45.876;12.300;2023-05-21T07:24:58;11.03;;;10.03;;
3726;SDS011;1879;45.876;12.300;2023-05-21T07:27:25;10.83;;;9.73;;
3726;SDS011;1879;45.876;12.300;2023-05-21T07:29:52;10.20;;;9.30;;
3726;SDS011;1879;45.876;12.300;2023-05-21T07:32:19;11.13;;;9.97;;
3726;SDS011;1879;45.876;12.300;2023-05-21T07:34:46;10.33;;;9.17;;
3726;SDS011;1879;45.876;12.300;2023-05-21T07:37:14;10.40;;;9.50;;
3726;SDS011;1879;45.876;12.300;2023-05-21T07:39:41;11.13;;;9.50;;
3726;SDS011;1879;45.876;12.300;2023-05-21T07:42:08;9.70;;;8.80;;
3726;SDS011;1879;45.876;12.300;2023-05-21T07:44:35;10.63;;;9.60;;
3726;SDS011;1879;45.876;12.300;2023-05-21T07:47:02;10.67;;;9.57;;
3726;SDS011;1879;45.876;12.300;2023-05-21T07:49:29;11.10;;;10.10;;
3726;SDS011;1879;45.876;12.300;2023-05-21T07:51:56;10.50;;;9.50;;
3726;SDS011;1879;45.876;12.300;2023-05-21T07:54:25;12.83;;;9.63;;
3726;SDS011;1879;45.876;12.300;2023-05-21T07:56:52;10.10;;;9.20;;
3726;SDS011;1879;45.876;12.300;2023-05-21T07:59:21;9.93;;;9.00;;
3726;SDS011;1879;45.876;12.300;2023-05-21T08:01:48;9.03;;;8.17;;
3726;SDS011;1879;45.876;12.300;2023-05-21T08:04:15;8.23;;;7.33;;
3726;SDS011;1879;45.876;12.300;2023-05-21T08:06:42;9.20;;;8.30;;
3726;SDS011;1879;45.876;12.300;2023-05-21T08:09:09;7.80;;;7.10;;
3726;SDS011;1879;45.876;12.300;2023-05-21T08:11:38;9.00;;;8.10;;
3726;SDS011;1879;45.876;12.300;2023-05-21T08:14:05;8.60;;;7.80;;
3726;SDS011;1879;45.876;12.300;2023-05-21T08:16:32;8.67;;;7.87;;
3726;SDS011;1879;45.876;12.300;2023-05-21T08:18:58;9.50;;;8.70;;
3726;SDS011;1879;45.876;12.300;2023-05-21T08:21:25;9.53;;;8.57;;
3726;SDS011;1879;45.876;12.300;2023-05-21T08:23:52;8.80;;;7.90;;
3726;SDS011;1879;45.876;12.300;2023-05-21T08:26:19;9.07;;;8.17;;
3726;SDS011;1879;45.876;12.300;2023-05-21T08:28:48;10.33;;;8.10;;
3726;SDS011;1879;45.876;12.300;2023-05-21T08:31:16;9.27;;;8.37;;
3726;SDS011;1879;45.876;12.300;2023-05-21T08:33:48;11.70;;;8.60;;
3726;SDS011;1879;45.876;12.300;2023-05-21T08:36:16;9.30;;;8.50;;
3726;SDS011;1879;45.876;12.300;2023-05-21T08:38:44;9.80;;;8.20;;
3726;SDS011;1879;45.876;12.300;2023-05-21T08:41:11;9.60;;;8.70;;
3726;SDS011;1879;45.876;12.300;2023-05-21T08:43:38;9.07;;;8.27;;
3726;SDS011;1879;45.876;12.300;2023-05-21T08:46:08;8.67;;;7.87;;
3726;SDS011;1879;45.876;12.300;2023-05-21T08:48:35;8.93;;;7.63;;
3726;SDS011;1879;45.876;12.300;2023-05-21T08:51:02;9.10;;;8.23;;
3726;SDS011;1879;45.876;12.300;2023-05-21T08:53:31;8.67;;;7.97;;
3726;SDS011;1879;45.876;12.300;2023-05-21T08:55:59;9.50;;;8.50;;
3726;SDS011;1879;45.876;12.300;2023-05-21T08:58:27;8.57;;;7.87;;
3726;SDS011;1879;45.876;12.300;2023-05-21T09:00:57;9.63;;;7.67;;
3726;SDS011;1879;45.876;12.300;2023-05-21T09:03:29;9.70;;;8.33;;
3726;SDS011;1879;45.876;12.300;2023-05-21T09:05:57;9.67;;;8.13;;
3726;SDS011;1879;45.876;12.300;2023-05-21T09:08:26;8.90;;;8.10;;
3726;SDS011;1879;45.876;12.300;2023-05-21T09:10:56;9.10;;;8.20;;
3726;SDS011;1879;45.876;12.300;2023-05-21T09:13:23;9.00;;;8.10;;
3726;SDS011;1879;45.876;12.300;2023-05-21T09:15:52;11.60;;;8.37;;
3726;SDS011;1879;45.876;12.300;2023-05-21T09:18:18;8.50;;;7.60;;
3726;SDS011;1879;45.876;12.300;2023-05-21T09:20:49;9.57;;;8.57;;
3726;SDS011;1879;45.876;12.300;2023-05-21T09:23:18;8.37;;;7.23;;
3726;SDS011;1879;45.876;12.300;2023-05-21T09:25:46;8.77;;;7.97;;
3726;SDS011;1879;45.876;12.300;2023-05-21T09:28:16;8.47;;;7.67;;
3726;SDS011;1879;45.876;12.300;2023-05-21T09:30:44;8.97;;;8.17;;
3726;SDS011;1879;45.876;12.300;2023-05-21T09:33:12;8.97;;;8.03;;
3726;SDS011;1879;45.876;12.300;2023-05-21T09:35:51;8.40;;;7.73;;
3726;SDS011;1879;45.876;12.300;2023-05-21T09:38:20;8.10;;;7.50;;
3726;SDS011;1879;45.876;12.300;2023-05-21T09:40:48;8.43;;;7.63;;
3726;SDS011;1879;45.876;12.300;2023-05-21T09:43:15;9.17;;;8.23;;
3726;SDS011;1879;45.876;12.300;2023-05-21T09:45:49;8.53;;;7.67;;
3726;SDS011;1879;45.876;12.300;2023-05-21T09:48:22;8.70;;;7.80;;
3726;SDS011;1879;45.876;12.300;2023-05-21T09:51:07;9.13;;;8.43;;
3726;SDS011;1879;45.876;12.300;2023-05-21T09:53:37;10.10;;;7.90;;
3726;SDS011;1879;45.876;12.300;2023-05-21T09:56:08;8.27;;;7.57;;
3726;SDS011;1879;45.876;12.300;2023-05-21T09:58:36;9.67;;;8.67;;
3726;SDS011;1879;45.876;12.300;2023-05-21T10:01:04;9.20;;;8.30;;
3726;SDS011;1879;45.876;12.300;2023-05-21T10:03:31;8.10;;;7.40;;
3726;SDS011;1879;45.876;12.300;2023-05-21T10:06:03;9.00;;;8.30;;
3726;SDS011;1879;45.876;12.300;2023-05-21T10:08:34;9.03;;;8.07;;
3726;SDS011;1879;45.876;12.300;2023-05-21T10:11:07;10.13;;;7.67;;
3726;SDS011;1879;45.876;12.300;2023-05-21T10:13:35;8.27;;;7.57;;
3726;SDS011;1879;45.876;12.300;2023-05-21T10:16:06;8.47;;;7.77;;
3726;SDS011;1879;45.876;12.300;2023-05-21T10:18:34;8.53;;;7.63;;
3726;SDS011;1879;45.876;12.300;2023-05-21T10:21:03;8.63;;;7.77;;
3726;SDS011;1879;45.876;12.300;2023-05-21T10:23:33;8.50;;;7.80;;
3726;SDS011;1879;45.876;12.300;2023-05-21T10:26:01;8.53;;;7.83;;
3726;SDS011;1879;45.876;12.300;2023-05-21T10:28:28;8.27;;;7.47;;
3726;SDS011;1879;45.876;12.300;2023-05-21T10:30:58;8.17;;;7.37;;
3726;SDS011;1879;45.876;12.300;2023-05-21T10:33:26;8.90;;;7.00;;
3726;SDS011;1879;45.876;12.300;2023-05-21T10:35:54;8.00;;;7.30;;
3726;SDS011;1879;45.876;12.300;2023-05-21T10:38:23;9.23;;;7.77;;
3726;SDS011;1879;45.876;12.300;2023-05-21T10:40:52;8.97;;;8.17;;
3726;SDS011;1879;45.876;12.300;2023-05-21T10:43:30;8.10;;;7.40;;
3726;SDS011;1879;45.876;12.300;2023-05-21T10:49:24;8.17;;;7.27;;
3726;SDS011;1879;45.876;12.300;2023-05-21T10:52:02;8.60;;;7.20;;
3726;SDS011;1879;45.876;12.300;2023-05-21T10:54:45;7.93;;;7.00;;
3726;SDS011;1879;45.876;12.300;2023-05-21T10:57:29;7.80;;;7.10;;
3726;SDS011;1879;45.876;12.300;2023-05-21T11:00:08;8.53;;;7.73;;
3726;SDS011;1879;45.876;12.300;2023-05-21T11:02:37;11.13;;;7.70;;
3726;SDS011;1879;45.876;12.300;2023-05-21T11:05:05;8.70;;;7.90;;
3726;SDS011;1879;45.876;12.300;2023-05-21T11:07:51;7.93;;;7.23;;
3726;SDS011;1879;45.876;12.300;2023-05-21T11:10:32;8.23;;;7.40;;
3726;SDS011;1879;45.876;12.300;2023-05-21T11:13:07;7.93;;;7.20;;
3726;SDS011;1879;45.876;12.300;2023-05-21T11:21:28;7.87;;;6.90;;
3726;SDS011;1879;45.876;12.300;2023-05-21T11:23:58;12.97;;;7.20;;
3726;SDS011;1879;45.876;12.300;2023-05-21T11:26:28;8.23;;;7.50;;
3726;SDS011;1879;45.876;12.300;2023-05-21T11:29:17;7.53;;;6.83;;
3726;SDS011;1879;45.876;12.300;2023-05-21T11:31:45;7.70;;;7.10;;
3726;SDS011;1879;45.876;12.300;2023-05-21T11:34:13;7.83;;;7.13;;
3726;SDS011;1879;45.876;12.300;2023-05-21T11:36:42;7.93;;;7.23;;
3726;SDS011;1879;45.876;12.300;2023-05-21T11:39:11;9.00;;;7.10;;
3726;SDS011;1879;45.876;12.300;2023-05-21T11:41:49;8.07;;;7.40;;
3726;SDS011;1879;45.876;12.300;2023-05-21T11:44:18;7.30;;;6.70;;
3726;SDS011;1879;45.876;12.300;2023-05-21T11:47:03;7.00;;;6.43;;
3726;SDS011;1879;45.876;12.300;2023-05-21T11:49:31;8.63;;;5.97;;
3726;SDS011;1879;45.876;12.300;2023-05-21T11:51:58;7.93;;;6.70;;
3726;SDS011;1879;45.876;12.300;2023-05-21T11:54:26;9.10;;;5.70;;
3726;SDS011;1879;45.876;12.300;2023-05-21T11:56:53;6.93;;;6.43;;
3726;SDS011;1879;45.876;12.300;2023-05-21T11:59:22;8.07;;;5.50;;
3726;SDS011;1879;45.876;12.300;2023-05-21T12:01:49;8.23;;;5.90;;
3726;SDS011;1879;45.876;12.300;2023-05-21T12:04:16;6.50;;;6.00;;
3726;SDS011;1879;45.876;12.300;2023-05-21T12:06:43;6.20;;;5.70;;
3726;SDS011;1879;45.876;12.300;2023-05-21T12:09:10;6.00;;;5.40;;
3726;SDS011;1879;45.876;12.300;2023-05-21T12:11:37;6.97;;;6.37;;
3726;SDS011;1879;45.876;12.300;2023-05-21T12:14:05;6.23;;;5.63;;
3726;SDS011;1879;45.876;12.300;2023-05-21T12:16:35;6.37;;;5.87;;
3726;SDS011;1879;45.876;12.300;2023-05-21T12:19:03;6.03;;;4.90;;
3726;SDS011;1879;45.876;12.300;2023-05-21T12:21:30;5.50;;;5.00;;
3726;SDS011;1879;45.876;12.300;2023-05-21T12:23:57;5.40;;;4.90;;
3726;SDS011;1879;45.876;12.300;2023-05-21T12:26:24;7.80;;;5.70;;
3726;SDS011;1879;45.876;12.300;2023-05-21T12:28:52;6.43;;;4.73;;
3726;SDS011;1879;45.876;12.300;2023-05-21T12:31:19;5.60;;;5.10;;
3726;SDS011;1879;45.876;12.300;2023-05-21T12:33:48;5.20;;;4.63;;
3726;SDS011;1879;45.876;12.300;2023-05-21T12:36:24;5.97;;;5.47;;
3726;SDS011;1879;45.876;12.300;2023-05-21T12:38:52;6.50;;;5.10;;
3726;SDS011;1879;45.876;12.300;2023-05-21T12:41:20;5.27;;;4.87;;
3726;SDS011;1879;45.876;12.300;2023-05-21T12:43:48;6.50;;;5.30;;
3726;SDS011;1879;45.876;12.300;2023-05-21T12:46:15;7.20;;;4.97;;
3726;SDS011;1879;45.876;12.300;2023-05-21T12:48:53;11.87;;;7.50;;
3726;SDS011;1879;45.876;12.300;2023-05-21T12:51:20;12.63;;;7.30;;
3726;SDS011;1879;45.876;12.300;2023-05-21T12:53:47;9.70;;;6.80;;
3726;SDS011;1879;45.876;12.300;2023-05-21T12:56:14;5.70;;;5.20;;
3726;SDS011;1879;45.876;12.300;2023-05-21T12:58:41;9.20;;;6.70;;
3726;SDS011;1879;45.876;12.300;2023-05-21T13:01:14;6.40;;;5.73;;
3726;SDS011;1879;45.876;12.300;2023-05-21T13:03:41;7.33;;;5.27;;
3726;SDS011;1879;45.876;12.300;2023-05-21T13:06:11;6.30;;;5.80;;
3726;SDS011;1879;45.876;12.300;2023-05-21T13:08:38;6.10;;;5.60;;
3726;SDS011;1879;45.876;12.300;2023-05-21T13:11:05;6.60;;;6.00;;
3726;SDS011;1879;45.876;12.300;2023-05-21T13:13:32;8.50;;;5.40;;
3726;SDS011;1879;45.876;12.300;2023-05-21T13:15:59;5.87;;;5.47;;
3726;SDS011;1879;45.876;12.300;2023-05-21T13:18:26;5.37;;;4.90;;
3726;SDS011;1879;45.876;12.300;2023-05-21T13:20:53;5.50;;;5.00;;
3726;SDS011;1879;45.876;12.300;2023-05-21T13:23:21;5.50;;;5.10;;
3726;SDS011;1879;45.876;12.300;2023-05-21T13:25:49;5.90;;;5.30;;
3726;SDS011;1879;45.876;12.300;2023-05-21T13:28:16;6.10;;;5.60;;
3726;SDS011;1879;45.876;12.300;2023-05-21T13:30:44;5.70;;;5.30;;
3726;SDS011;1879;45.876;12.300;2023-05-21T13:33:11;5.07;;;4.63;;
3726;SDS011;1879;45.876;12.300;2023-05-21T13:35:38;5.40;;;4.90;;
3726;SDS011;1879;45.876;12.300;2023-05-21T13:38:05;6.50;;;5.43;;
3726;SDS011;1879;45.876;12.300;2023-05-21T13:40:34;5.18;;;4.72;;
3726;SDS011;1879;45.876;12.300;2023-05-21T13:43:01;6.20;;;5.05;;
3726;SDS011;1879;45.876;12.300;2023-05-21T13:45:29;5.20;;;4.80;;
3726;SDS011;1879;45.876;12.300;2023-05-21T13:47:56;5.85;;;5.35;;
3726;SDS011;1879;45.876;12.300;2023-05-21T13:50:24;5.68;;;5.18;;
3726;SDS011;1879;45.876;12.300;2023-05-21T13:52:51;4.80;;;4.50;;
3726;SDS011;1879;45.876;12.300;2023-05-21T13:55:18;6.07;;;4.90;;
3726;SDS011;1879;45.876;12.300;2023-05-21T13:57:47;5.43;;;5.03;;
3726;SDS011;1879;45.876;12.300;2023-05-21T14:00:14;6.28;;;5.78;;
3726;SDS011;1879;45.876;12.300;2023-05-21T14:02:41;5.10;;;4.65;;
3726;SDS011;1879;45.876;12.300;2023-05-21T14:05:09;5.50;;;5.10;;
3726;SDS011;1879;45.876;12.300;2023-05-21T14:07:36;5.10;;;4.70;;
3726;SDS011;1879;45.876;12.300;2023-05-21T14:10:05;5.35;;;4.95;;
3726;SDS011;1879;45.876;12.300;2023-05-21T14:12:32;5.70;;;5.22;;
3726;SDS011;1879;45.876;12.300;2023-05-21T14:15:01;5.13;;;4.63;;
3726;SDS011;1879;45.876;12.300;2023-05-21T14:17:28;7.07;;;5.20;;
3726;SDS011;1879;45.876;12.300;2023-05-21T14:19:55;5.57;;;5.18;;
3726;SDS011;1879;45.876;12.300;2023-05-21T14:22:22;9.48;;;5.15;;
3726;SDS011;1879;45.876;12.300;2023-05-21T14:24:49;6.43;;;4.63;;
3726;SDS011;1879;45.876;12.300;2023-05-21T14:27:17;5.10;;;4.60;;
3726;SDS011;1879;45.876;12.300;2023-05-21T14:29:45;5.05;;;4.55;;
3726;SDS011;1879;45.876;12.300;2023-05-21T14:32:13;5.63;;;5.07;;
3726;SDS011;1879;45.876;12.300;2023-05-21T14:34:42;5.30;;;4.90;;
3726;SDS011;1879;45.876;12.300;2023-05-21T14:37:09;5.40;;;4.95;;
3726;SDS011;1879;45.876;12.300;2023-05-21T14:39:39;5.18;;;4.78;;
3726;SDS011;1879;45.876;12.300;2023-05-21T14:42:06;7.68;;;5.10;;
3726;SDS011;1879;45.876;12.300;2023-05-21T14:44:33;5.53;;;5.13;;
3726;SDS011;1879;45.876;12.300;2023-05-21T14:47:00;4.80;;;4.40;;
3726;SDS011;1879;45.876;12.300;2023-05-21T14:49:29;5.00;;;4.57;;
3726;SDS011;1879;45.876;12.300;2023-05-21T14:51:56;4.93;;;4.53;;
3726;SDS011;1879;45.876;12.300;2023-05-21T14:54:23;6.05;;;4.60;;
3726;SDS011;1879;45.876;12.300;2023-05-21T14:56:50;4.78;;;4.43;;
3726;SDS011;1879;45.876;12.300;2023-05-21T14:59:18;4.90;;;4.57;;
3726;SDS011;1879;45.876;12.300;2023-05-21T15:01:45;5.63;;;4.75;;
3726;SDS011;1879;45.876;12.300;2023-05-21T15:04:12;5.15;;;4.75;;